sensor_id;sensor_type;location;lat;lon;timestamp;pressure;altitude;pressure_sealevel;temperature;humidity
34328;BME280;20588;48.840;10.064;2024-02-26T00:01:57;94654.16;;;5.83;96.25
34328;BME280;20588;48.840;10.064;2024-02-26T00:04:23;94649.25;;;5.93;95.53
34328;BME280;20588;48.840;10.064;2024-02-26T00:06:50;94652.59;;;5.93;95.49
34328;BME280;20588;48.840;10.064;2024-02-26T00:09:17;94649.81;;;5.95;95.38
34328;BME280;20588;48.840;10.064;2024-02-26T00:11:43;94650.25;;;5.92;95.17
34328;BME280;20588;48.840;10.064;2024-02-26T00:14:09;94649.56;;;5.96;95.39
34328;BME280;20588;48.840;10.064;2024-02-26T00:16:35;94652.25;;;5.90;95.81
34328;BME280;20588;48.840;10.064;2024-02-26T00:19:01;94639.16;;;5.86;95.71
34328;BME280;20588;48.840;10.064;2024-02-26T00:21:28;94637.06;;;5.83;94.82
34328;BME280;20588;48.840;10.064;2024-02-26T00:23:54;94635.19;;;5.90;94.22
34328;BME280;20588;48.840;10.064;2024-02-26T00:26:20;94633.31;;;5.86;94.20
34328;BME280;20588;48.840;10.064;2024-02-26T00:28:46;94643.19;;;5.82;93.88
34328;BME280;20588;48.840;10.064;2024-02-26T00:31:12;94642.50;;;5.87;93.56
34328;BME280;20588;48.840;10.064;2024-02-26T00:33:38;94654.47;;;5.86;93.03
34328;BME280;20588;48.840;10.064;2024-02-26T00:36:05;94654.28;;;5.88;92.90
34328;BME280;20588;48.840;10.064;2024-02-26T00:38:31;94648.16;;;5.89;93.49
34328;BME280;20588;48.840;10.064;2024-02-26T00:40:57;94654.81;;;5.90;93.03
34328;BME280;20588;48.840;10.064;2024-02-26T00:43:23;94648.50;;;5.92;92.89
34328;BME280;20588;48.840;10.064;2024-02-26T00:45:49;94652.81;;;5.92;91.67
34328;BME280;20588;48.840;10.064;2024-02-26T00:48:15;94653.22;;;6.00;89.71
34328;BME280;20588;48.840;10.064;2024-02-26T00:50:41;94655.75;;;6.12;88.39
34328;BME280;20588;48.840;10.064;2024-02-26T00:53:08;94650.59;;;6.40;80.76
34328;BME280;20588;48.840;10.064;2024-02-26T00:55:34;94652.03;;;6.64;76.90
34328;BME280;20588;48.840;10.064;2024-02-26T00:58:01;94656.22;;;6.70;76.34
34328;BME280;20588;48.840;10.064;2024-02-26T01:00:27;94653.75;;;6.75;75.46
34328;BME280;20588;48.840;10.064;2024-02-26T01:02:53;94651.50;;;6.78;74.03
34328;BME280;20588;48.840;10.064;2024-02-26T01:05:19;94651.03;;;6.65;74.77
34328;BME280;20588;48.840;10.064;2024-02-26T01:07:45;94662.38;;;6.57;75.40
34328;BME280;20588;48.840;10.064;2024-02-26T01:10:11;94649.00;;;6.50;77.11
34328;BME280;20588;48.840;10.064;2024-02-26T01:12:37;94651.88;;;6.54;75.76
34328;BME280;20588;48.840;10.064;2024-02-26T01:15:04;94651.53;;;6.50;77.48
34328;BME280;20588;48.840;10.064;2024-02-26T01:17:30;94648.28;;;6.55;77.39
34328;BME280;20588;48.840;10.064;2024-02-26T01:19:56;94639.00;;;6.49;77.46
34328;BME280;20588;48.840;10.064;2024-02-26T01:22:23;94639.94;;;6.43;77.32
34328;BME280;20588;48.840;10.064;2024-02-26T01:24:49;94637.28;;;6.38;78.91
34328;BME280;20588;48.840;10.064;2024-02-26T01:27:16;94632.03;;;6.44;72.58
34328;BME280;20588;48.840;10.064;2024-02-26T01:29:42;94634.13;;;6.47;72.98
34328;BME280;20588;48.840;10.064;2024-02-26T01:32:08;94625.16;;;6.61;73.07
34328;BME280;20588;48.840;10.064;2024-02-26T01:34:34;94621.75;;;6.56;74.71
34328;BME280;20588;48.840;10.064;2024-02-26T01:37:02;94634.22;;;6.69;72.35
34328;BME280;20588;48.840;10.064;2024-02-26T01:39:28;94630.66;;;6.70;70.62
34328;BME280;20588;48.840;10.064;2024-02-26T01:41:56;94625.22;;;6.99;69.40
34328;BME280;20588;48.840;10.064;2024-02-26T01:44:22;94625.53;;;6.86;69.18
34328;BME280;20588;48.840;10.064;2024-02-26T01:46:48;94625.72;;;6.80;68.83
34328;BME280;20588;48.840;10.064;2024-02-26T01:49:15;94628.50;;;6.78;68.82
34328;BME280;20588;48.840;10.064;2024-02-26T01:51:42;94628.78;;;6.82;67.53
34328;BME280;20588;48.840;10.064;2024-02-26T01:54:09;94634.53;;;6.72;67.30
34328;BME280;20588;48.840;10.064;2024-02-26T01:56:36;94632.50;;;6.91;64.78
34328;BME280;20588;48.840;10.064;2024-02-26T01:59:04;94633.53;;;6.90;65.45
34328;BME280;20588;48.840;10.064;2024-02-26T02:01:32;94633.38;;;6.96;66.13
34328;BME280;20588;48.840;10.064;2024-02-26T02:04:00;94624.28;;;7.05;64.74
34328;BME280;20588;48.840;10.064;2024-02-26T02:06:27;94627.47;;;6.96;65.35
34328;BME280;20588;48.840;10.064;2024-02-26T02:08:57;94616.69;;;6.94;65.50
34328;BME280;20588;48.840;10.064;2024-02-26T02:11:23;94609.91;;;6.83;66.30
34328;BME280;20588;48.840;10.064;2024-02-26T02:13:49;94610.38;;;6.80;66.34
34328;BME280;20588;48.840;10.064;2024-02-26T02:16:15;94611.97;;;7.02;65.49
34328;BME280;20588;48.840;10.064;2024-02-26T02:18:41;94607.72;;;6.91;63.63
34328;BME280;20588;48.840;10.064;2024-02-26T02:21:07;94608.78;;;6.95;63.45
34328;BME280;20588;48.840;10.064;2024-02-26T02:23:33;94614.56;;;6.86;63.21
34328;BME280;20588;48.840;10.064;2024-02-26T02:26:00;94617.25;;;6.96;64.32
34328;BME280;20588;48.840;10.064;2024-02-26T02:28:27;94612.25;;;7.06;63.49
34328;BME280;20588;48.840;10.064;2024-02-26T02:30:53;94626.16;;;7.10;63.39
34328;BME280;20588;48.840;10.064;2024-02-26T02:33:20;94621.06;;;6.93;64.48
34328;BME280;20588;48.840;10.064;2024-02-26T02:35:47;94632.81;;;6.78;66.74
34328;BME280;20588;48.840;10.064;2024-02-26T02:38:13;94619.50;;;6.76;70.77
34328;BME280;20588;48.840;10.064;2024-02-26T02:40:39;94622.59;;;6.61;72.69
34328;BME280;20588;48.840;10.064;2024-02-26T02:43:05;94628.00;;;6.48;74.99
34328;BME280;20588;48.840;10.064;2024-02-26T02:45:31;94631.03;;;6.45;75.78
34328;BME280;20588;48.840;10.064;2024-02-26T02:47:57;94622.59;;;6.45;76.44
34328;BME280;20588;48.840;10.064;2024-02-26T02:50:23;94622.41;;;6.35;76.10
34328;BME280;20588;48.840;10.064;2024-02-26T02:52:49;94621.91;;;6.33;76.05
34328;BME280;20588;48.840;10.064;2024-02-26T02:55:16;94623.03;;;6.25;77.25
34328;BME280;20588;48.840;10.064;2024-02-26T02:57:42;94618.84;;;6.19;78.16
34328;BME280;20588;48.840;10.064;2024-02-26T03:00:11;94621.31;;;6.14;79.22
34328;BME280;20588;48.840;10.064;2024-02-26T03:02:37;94624.31;;;6.11;79.29
34328;BME280;20588;48.840;10.064;2024-02-26T03:05:06;94622.56;;;6.12;80.27
34328;BME280;20588;48.840;10.064;2024-02-26T03:07:32;94623.53;;;6.11;80.19
34328;BME280;20588;48.840;10.064;2024-02-26T03:09:58;94624.50;;;6.21;78.84
34328;BME280;20588;48.840;10.064;2024-02-26T03:12:24;94633.63;;;6.17;78.57
34328;BME280;20588;48.840;10.064;2024-02-26T03:14:51;94635.84;;;6.14;78.34
34328;BME280;20588;48.840;10.064;2024-02-26T03:17:17;94633.97;;;6.09;78.32
34328;BME280;20588;48.840;10.064;2024-02-26T03:19:44;94644.41;;;6.36;71.08
34328;BME280;20588;48.840;10.064;2024-02-26T03:22:13;94650.16;;;6.43;68.92
34328;BME280;20588;48.840;10.064;2024-02-26T03:24:39;94659.06;;;6.40;69.15
34328;BME280;20588;48.840;10.064;2024-02-26T03:27:05;94661.38;;;6.42;69.51
34328;BME280;20588;48.840;10.064;2024-02-26T03:29:35;94662.34;;;6.41;69.93
34328;BME280;20588;48.840;10.064;2024-02-26T03:32:01;94663.38;;;6.40;68.58
34328;BME280;20588;48.840;10.064;2024-02-26T03:34:28;94665.47;;;6.43;67.46
34328;BME280;20588;48.840;10.064;2024-02-26T03:36:54;94676.47;;;6.43;66.96
34328;BME280;20588;48.840;10.064;2024-02-26T03:39:20;94653.63;;;6.53;67.13
34328;BME280;20588;48.840;10.064;2024-02-26T03:41:46;94656.19;;;6.53;67.51
34328;BME280;20588;48.840;10.064;2024-02-26T03:44:12;94636.06;;;6.57;68.09
34328;BME280;20588;48.840;10.064;2024-02-26T03:46:38;94654.94;;;6.56;69.84
34328;BME280;20588;48.840;10.064;2024-02-26T03:49:04;94664.19;;;6.57;69.77
34328;BME280;20588;48.840;10.064;2024-02-26T03:51:30;94642.88;;;6.51;68.63
34328;BME280;20588;48.840;10.064;2024-02-26T03:53:58;94633.53;;;6.57;71.63
34328;BME280;20588;48.840;10.064;2024-02-26T03:56:25;94640.72;;;6.60;73.90
34328;BME280;20588;48.840;10.064;2024-02-26T03:58:51;94666.03;;;6.45;74.81
34328;BME280;20588;48.840;10.064;2024-02-26T04:01:17;94670.47;;;6.38;76.03
34328;BME280;20588;48.840;10.064;2024-02-26T04:03:43;94675.06;;;6.36;76.89
34328;BME280;20588;48.840;10.064;2024-02-26T04:06:10;94669.16;;;6.35;77.39
34328;BME280;20588;48.840;10.064;2024-02-26T04:08:37;94671.84;;;6.29;77.90
34328;BME280;20588;48.840;10.064;2024-02-26T04:11:03;94671.34;;;6.27;78.68
34328;BME280;20588;48.840;10.064;2024-02-26T04:13:33;94674.13;;;6.25;79.19
34328;BME280;20588;48.840;10.064;2024-02-26T04:16:00;94676.91;;;6.24;79.66
34328;BME280;20588;48.840;10.064;2024-02-26T04:18:27;94671.22;;;6.22;79.73
34328;BME280;20588;48.840;10.064;2024-02-26T04:20:53;94661.34;;;6.25;80.21
34328;BME280;20588;48.840;10.064;2024-02-26T04:23:20;94675.31;;;6.23;81.42
34328;BME280;20588;48.840;10.064;2024-02-26T04:25:46;94679.13;;;6.20;83.11
34328;BME280;20588;48.840;10.064;2024-02-26T04:28:13;94672.69;;;6.18;84.48
34328;BME280;20588;48.840;10.064;2024-02-26T04:30:39;94677.47;;;6.14;85.56
34328;BME280;20588;48.840;10.064;2024-02-26T04:33:05;94667.72;;;6.11;86.34
34328;BME280;20588;48.840;10.064;2024-02-26T04:35:31;94666.09;;;6.05;87.14
34328;BME280;20588;48.840;10.064;2024-02-26T04:37:57;94684.19;;;6.04;88.61
34328;BME280;20588;48.840;10.064;2024-02-26T04:40:24;94661.44;;;6.02;89.30
34328;BME280;20588;48.840;10.064;2024-02-26T04:42:50;94666.53;;;6.02;89.80
34328;BME280;20588;48.840;10.064;2024-02-26T04:45:16;94679.41;;;5.96;90.09
34328;BME280;20588;48.840;10.064;2024-02-26T04:47:42;94684.22;;;5.92;90.56
34328;BME280;20588;48.840;10.064;2024-02-26T04:50:08;94675.22;;;5.90;90.25
34328;BME280;20588;48.840;10.064;2024-02-26T04:52:34;94673.00;;;5.93;90.20
34328;BME280;20588;48.840;10.064;2024-02-26T04:55:02;94689.84;;;5.94;90.29
34328;BME280;20588;48.840;10.064;2024-02-26T04:57:28;94693.97;;;5.95;89.29
34328;BME280;20588;48.840;10.064;2024-02-26T04:59:54;94674.53;;;5.94;88.64
34328;BME280;20588;48.840;10.064;2024-02-26T05:02:21;94669.66;;;5.93;88.42
34328;BME280;20588;48.840;10.064;2024-02-26T05:04:47;94656.44;;;5.96;89.15
34328;BME280;20588;48.840;10.064;2024-02-26T05:07:14;94637.03;;;5.95;89.91
34328;BME280;20588;48.840;10.064;2024-02-26T05:09:41;94643.38;;;5.92;90.71
34328;BME280;20588;48.840;10.064;2024-02-26T05:12:08;94632.41;;;5.92;91.62
34328;BME280;20588;48.840;10.064;2024-02-26T05:14:34;94646.16;;;5.91;91.94
34328;BME280;20588;48.840;10.064;2024-02-26T05:17:00;94638.97;;;5.88;91.75
34328;BME280;20588;48.840;10.064;2024-02-26T05:19:26;94643.28;;;5.87;91.60
34328;BME280;20588;48.840;10.064;2024-02-26T05:21:52;94657.34;;;5.90;91.15
34328;BME280;20588;48.840;10.064;2024-02-26T05:24:18;94656.00;;;5.99;88.21
34328;BME280;20588;48.840;10.064;2024-02-26T05:26:45;94652.06;;;6.08;87.26
34328;BME280;20588;48.840;10.064;2024-02-26T05:29:11;94659.84;;;6.13;86.05
34328;BME280;20588;48.840;10.064;2024-02-26T05:31:37;94676.63;;;5.97;87.16
34328;BME280;20588;48.840;10.064;2024-02-26T05:34:03;94676.78;;;5.91;88.21
34328;BME280;20588;48.840;10.064;2024-02-26T05:36:29;94683.44;;;5.92;88.40
34328;BME280;20588;48.840;10.064;2024-02-26T05:38:59;94666.44;;;5.97;88.56
34328;BME280;20588;48.840;10.064;2024-02-26T05:41:26;94663.03;;;5.92;88.96
34328;BME280;20588;48.840;10.064;2024-02-26T05:43:55;94672.56;;;5.85;89.50
34328;BME280;20588;48.840;10.064;2024-02-26T05:46:22;94652.25;;;5.90;90.22
34328;BME280;20588;48.840;10.064;2024-02-26T05:48:50;94661.38;;;5.86;90.74
34328;BME280;20588;48.840;10.064;2024-02-26T05:51:16;94653.59;;;5.81;92.07
34328;BME280;20588;48.840;10.064;2024-02-26T05:53:42;94643.69;;;5.96;91.53
34328;BME280;20588;48.840;10.064;2024-02-26T05:56:08;94645.59;;;5.89;91.99
34328;BME280;20588;48.840;10.064;2024-02-26T05:58:35;94659.22;;;6.06;89.75
34328;BME280;20588;48.840;10.064;2024-02-26T06:01:01;94657.34;;;5.90;89.13
34328;BME280;20588;48.840;10.064;2024-02-26T06:03:27;94663.94;;;5.86;89.95
34328;BME280;20588;48.840;10.064;2024-02-26T06:05:53;94663.13;;;5.85;90.11
34328;BME280;20588;48.840;10.064;2024-02-26T06:08:19;94667.47;;;5.85;90.83
34328;BME280;20588;48.840;10.064;2024-02-26T06:10:45;94663.00;;;5.80;89.99
34328;BME280;20588;48.840;10.064;2024-02-26T06:13:11;94656.50;;;5.84;89.19
34328;BME280;20588;48.840;10.064;2024-02-26T06:15:37;94655.25;;;5.87;88.64
34328;BME280;20588;48.840;10.064;2024-02-26T06:18:03;94658.81;;;5.86;88.60
34328;BME280;20588;48.840;10.064;2024-02-26T06:20:30;94668.03;;;5.87;87.89
34328;BME280;20588;48.840;10.064;2024-02-26T06:22:56;94668.69;;;5.94;87.34
34328;BME280;20588;48.840;10.064;2024-02-26T06:25:22;94672.00;;;5.94;87.55
34328;BME280;20588;48.840;10.064;2024-02-26T06:27:48;94684.84;;;5.99;87.24
34328;BME280;20588;48.840;10.064;2024-02-26T06:30:14;94696.94;;;6.04;86.68
34328;BME280;20588;48.840;10.064;2024-02-26T06:32:40;94703.13;;;6.08;86.26
34328;BME280;20588;48.840;10.064;2024-02-26T06:35:06;94720.03;;;6.09;85.92
34328;BME280;20588;48.840;10.064;2024-02-26T06:37:34;94722.56;;;6.09;85.81
34328;BME280;20588;48.840;10.064;2024-02-26T06:40:01;94716.78;;;6.13;85.93
34328;BME280;20588;48.840;10.064;2024-02-26T06:42:30;94725.53;;;6.17;85.90
34328;BME280;20588;48.840;10.064;2024-02-26T06:44:56;94721.28;;;6.23;85.96
34328;BME280;20588;48.840;10.064;2024-02-26T06:47:22;94730.59;;;6.29;85.76
34328;BME280;20588;48.840;10.064;2024-02-26T06:49:48;94736.81;;;6.33;85.81
34328;BME280;20588;48.840;10.064;2024-02-26T06:52:14;94740.69;;;6.35;86.59
34328;BME280;20588;48.840;10.064;2024-02-26T06:54:40;94728.00;;;6.40;87.34
34328;BME280;20588;48.840;10.064;2024-02-26T06:57:07;94729.56;;;6.41;88.05
34328;BME280;20588;48.840;10.064;2024-02-26T06:59:33;94722.91;;;6.40;88.96
34328;BME280;20588;48.840;10.064;2024-02-26T07:01:59;94735.91;;;6.39;90.23
34328;BME280;20588;48.840;10.064;2024-02-26T07:04:25;94729.09;;;6.44;90.29
34328;BME280;20588;48.840;10.064;2024-02-26T07:06:51;94735.06;;;6.50;91.66
34328;BME280;20588;48.840;10.064;2024-02-26T07:09:17;94733.63;;;6.54;92.64
34328;BME280;20588;48.840;10.064;2024-02-26T07:11:43;94743.72;;;6.60;94.03
34328;BME280;20588;48.840;10.064;2024-02-26T07:14:10;94736.66;;;6.67;94.75
34328;BME280;20588;48.840;10.064;2024-02-26T07:16:36;94741.41;;;6.75;94.98
34328;BME280;20588;48.840;10.064;2024-02-26T07:19:03;94744.38;;;6.84;95.14
34328;BME280;20588;48.840;10.064;2024-02-26T07:21:29;94748.41;;;6.96;94.64
34328;BME280;20588;48.840;10.064;2024-02-26T07:23:56;94751.69;;;7.08;92.64
34328;BME280;20588;48.840;10.064;2024-02-26T07:26:22;94750.56;;;7.21;91.24
34328;BME280;20588;48.840;10.064;2024-02-26T07:28:50;94755.53;;;7.27;91.40
34328;BME280;20588;48.840;10.064;2024-02-26T07:31:17;94758.50;;;7.36;91.11
34328;BME280;20588;48.840;10.064;2024-02-26T07:33:43;94753.53;;;7.46;87.99
34328;BME280;20588;48.840;10.064;2024-02-26T07:36:09;94756.16;;;7.51;86.99
34328;BME280;20588;48.840;10.064;2024-02-26T07:38:35;94759.34;;;7.58;86.06
34328;BME280;20588;48.840;10.064;2024-02-26T07:41:02;94761.75;;;7.65;84.28
34328;BME280;20588;48.840;10.064;2024-02-26T07:43:28;94767.78;;;7.75;83.40
34328;BME280;20588;48.840;10.064;2024-02-26T07:45:54;94758.06;;;7.77;80.98
34328;BME280;20588;48.840;10.064;2024-02-26T07:48:21;94754.06;;;7.86;79.97
34328;BME280;20588;48.840;10.064;2024-02-26T07:50:47;94759.16;;;8.03;79.54
34328;BME280;20588;48.840;10.064;2024-02-26T07:53:14;94754.00;;;8.19;78.68
34328;BME280;20588;48.840;10.064;2024-02-26T07:55:40;94753.31;;;8.24;77.39
34328;BME280;20588;48.840;10.064;2024-02-26T07:58:06;94756.22;;;8.32;74.72
34328;BME280;20588;48.840;10.064;2024-02-26T08:00:32;94755.97;;;8.55;75.31
34328;BME280;20588;48.840;10.064;2024-02-26T08:02:58;94745.22;;;8.85;72.48
34328;BME280;20588;48.840;10.064;2024-02-26T08:05:24;94740.09;;;9.11;71.64
34328;BME280;20588;48.840;10.064;2024-02-26T08:07:51;94738.72;;;9.36;70.93
34328;BME280;20588;48.840;10.064;2024-02-26T08:10:17;94732.88;;;9.45;66.15
34328;BME280;20588;48.840;10.064;2024-02-26T08:12:43;94742.03;;;9.68;65.67
34328;BME280;20588;48.840;10.064;2024-02-26T08:15:11;94740.59;;;9.87;64.67
34328;BME280;20588;48.840;10.064;2024-02-26T08:17:37;94746.25;;;10.35;60.60
34328;BME280;20588;48.840;10.064;2024-02-26T08:20:04;94751.13;;;10.37;58.80
34328;BME280;20588;48.840;10.064;2024-02-26T08:22:30;94751.28;;;10.15;57.51
34328;BME280;20588;48.840;10.064;2024-02-26T08:24:56;94752.53;;;10.08;59.49
34328;BME280;20588;48.840;10.064;2024-02-26T08:27:22;94749.25;;;10.17;59.85
34328;BME280;20588;48.840;10.064;2024-02-26T08:29:48;94754.91;;;10.19;58.73
34328;BME280;20588;48.840;10.064;2024-02-26T08:32:14;94763.03;;;10.06;60.37
34328;BME280;20588;48.840;10.064;2024-02-26T08:34:40;94755.97;;;9.82;60.56
34328;BME280;20588;48.840;10.064;2024-02-26T08:37:06;94761.38;;;9.85;61.06
34328;BME280;20588;48.840;10.064;2024-02-26T08:39:32;94761.75;;;10.04;60.52
34328;BME280;20588;48.840;10.064;2024-02-26T08:41:58;94761.19;;;9.97;59.91
34328;BME280;20588;48.840;10.064;2024-02-26T08:44:24;94771.13;;;9.83;60.74
34328;BME280;20588;48.840;10.064;2024-02-26T08:46:52;94773.94;;;9.82;60.84
34328;BME280;20588;48.840;10.064;2024-02-26T08:49:18;94777.06;;;9.84;62.54
34328;BME280;20588;48.840;10.064;2024-02-26T08:51:44;94780.44;;;9.94;61.67
34328;BME280;20588;48.840;10.064;2024-02-26T08:54:11;94780.84;;;10.13;61.99
34328;BME280;20588;48.840;10.064;2024-02-26T08:56:37;94791.22;;;10.33;60.44
34328;BME280;20588;48.840;10.064;2024-02-26T08:59:03;94779.94;;;10.39;60.38
34328;BME280;20588;48.840;10.064;2024-02-26T09:01:31;94777.94;;;10.56;60.47
34328;BME280;20588;48.840;10.064;2024-02-26T09:03:57;94784.69;;;10.77;60.99
34328;BME280;20588;48.840;10.064;2024-02-26T09:06:23;94782.69;;;11.04;61.58
34328;BME280;20588;48.840;10.064;2024-02-26T09:08:49;94790.19;;;11.31;61.13
34328;BME280;20588;48.840;10.064;2024-02-26T09:11:16;94789.16;;;11.57;59.86
34328;BME280;20588;48.840;10.064;2024-02-26T09:13:42;94790.47;;;11.84;59.36
34328;BME280;20588;48.840;10.064;2024-02-26T09:16:08;94794.53;;;12.05;59.08
34328;BME280;20588;48.840;10.064;2024-02-26T09:18:34;94796.03;;;12.26;58.31
34328;BME280;20588;48.840;10.064;2024-02-26T09:21:03;94808.34;;;12.49;57.42
34328;BME280;20588;48.840;10.064;2024-02-26T09:23:30;94802.63;;;12.62;56.98
34328;BME280;20588;48.840;10.064;2024-02-26T09:25:56;94807.47;;;12.74;56.18
34328;BME280;20588;48.840;10.064;2024-02-26T09:28:23;94797.66;;;12.76;56.05
34328;BME280;20588;48.840;10.064;2024-02-26T09:30:49;94809.50;;;12.82;56.18
34328;BME280;20588;48.840;10.064;2024-02-26T09:33:16;94810.53;;;12.81;54.43
34328;BME280;20588;48.840;10.064;2024-02-26T09:35:42;94815.66;;;12.86;54.89
34328;BME280;20588;48.840;10.064;2024-02-26T09:38:08;94819.00;;;12.92;55.23
34328;BME280;20588;48.840;10.064;2024-02-26T09:40:34;94826.22;;;12.95;54.92
34328;BME280;20588;48.840;10.064;2024-02-26T09:43:01;94822.06;;;12.99;55.17
34328;BME280;20588;48.840;10.064;2024-02-26T09:45:31;94821.03;;;13.05;55.55
34328;BME280;20588;48.840;10.064;2024-02-26T09:47:59;94822.19;;;13.27;55.53
34328;BME280;20588;48.840;10.064;2024-02-26T09:50:25;94827.50;;;13.41;54.83
34328;BME280;20588;48.840;10.064;2024-02-26T09:52:52;94824.59;;;13.52;54.07
34328;BME280;20588;48.840;10.064;2024-02-26T09:57:46;94829.06;;;13.42;nan
34328;BME280;20588;48.840;10.064;2024-02-26T10:00:18;94829.56;;;13.77;nan
34328;BME280;20588;48.840;10.064;2024-02-26T10:02:47;94830.81;;;14.42;nan
34328;BME280;20588;48.840;10.064;2024-02-26T10:05:16;94832.94;;;14.82;nan
34328;BME280;20588;48.840;10.064;2024-02-26T10:07:45;94834.47;;;14.83;nan
34328;BME280;20588;48.840;10.064;2024-02-26T10:10:12;94832.00;;;15.34;nan
34328;BME280;20588;48.840;10.064;2024-02-26T10:12:39;94837.41;;;15.74;nan
34328;BME280;20588;48.840;10.064;2024-02-26T10:15:05;94844.22;;;16.48;nan
34328;BME280;20588;48.840;10.064;2024-02-26T10:17:32;94841.81;;;16.79;nan
34328;BME280;20588;48.840;10.064;2024-02-26T10:20:18;94843.16;;;17.03;nan
34328;BME280;20588;48.840;10.064;2024-02-26T10:22:45;94837.78;;;17.49;nan
34328;BME280;20588;48.840;10.064;2024-02-26T10:25:11;94836.97;;;18.37;nan
34328;BME280;20588;48.840;10.064;2024-02-26T10:27:37;94841.22;;;19.19;nan
34328;BME280;20588;48.840;10.064;2024-02-26T10:30:04;94846.19;;;18.73;nan
34328;BME280;20588;48.840;10.064;2024-02-26T10:32:41;94849.03;;;18.02;nan
34328;BME280;20588;48.840;10.064;2024-02-26T10:35:10;94849.44;;;17.95;nan
34328;BME280;20588;48.840;10.064;2024-02-26T10:37:36;94840.19;;;18.73;nan
34328;BME280;20588;48.840;10.064;2024-02-26T10:40:02;94840.22;;;19.46;nan
34328;BME280;20588;48.840;10.064;2024-02-26T10:42:30;94841.47;;;19.83;nan
34328;BME280;20588;48.840;10.064;2024-02-26T10:44:57;94842.22;;;19.49;nan
34328;BME280;20588;48.840;10.064;2024-02-26T10:47:24;94848.00;;;18.64;nan
34328;BME280;20588;48.840;10.064;2024-02-26T10:49:51;94833.28;;;17.85;nan
34328;BME280;20588;48.840;10.064;2024-02-26T10:52:19;94835.81;;;17.54;nan
34328;BME280;20588;48.840;10.064;2024-02-26T10:54:48;94837.78;;;16.73;nan
34328;BME280;20588;48.840;10.064;2024-02-26T10:57:16;94833.28;;;17.27;nan
34328;BME280;20588;48.840;10.064;2024-02-26T10:59:44;94834.66;;;17.60;nan
34328;BME280;20588;48.840;10.064;2024-02-26T11:02:12;94833.94;;;18.13;nan
34328;BME280;20588;48.840;10.064;2024-02-26T11:04:39;94833.28;;;18.68;nan
34328;BME280;20588;48.840;10.064;2024-02-26T11:07:05;94829.06;;;18.98;nan
34328;BME280;20588;48.840;10.064;2024-02-26T11:09:32;94824.53;;;19.20;nan
34328;BME280;20588;48.840;10.064;2024-02-26T11:11:59;94821.75;;;19.08;nan
34328;BME280;20588;48.840;10.064;2024-02-26T11:14:26;94820.25;;;18.60;nan
34328;BME280;20588;48.840;10.064;2024-02-26T11:16:56;94812.94;;;18.18;nan
34328;BME280;20588;48.840;10.064;2024-02-26T11:19:25;94816.84;;;17.54;nan
34328;BME280;20588;48.840;10.064;2024-02-26T11:21:52;94812.97;;;17.29;nan
34328;BME280;20588;48.840;10.064;2024-02-26T11:24:18;94813.34;;;16.60;nan
34328;BME280;20588;48.840;10.064;2024-02-26T11:26:54;94816.50;;;16.44;nan
34328;BME280;20588;48.840;10.064;2024-02-26T11:29:33;94820.09;;;16.61;nan
34328;BME280;20588;48.840;10.064;2024-02-26T11:32:00;94818.81;;;16.72;nan
34328;BME280;20588;48.840;10.064;2024-02-26T11:34:27;94811.22;;;16.76;nan
34328;BME280;20588;48.840;10.064;2024-02-26T11:36:54;94809.97;;;16.73;nan
34328;BME280;20588;48.840;10.064;2024-02-26T11:39:20;94818.63;;;16.69;nan
34328;BME280;20588;48.840;10.064;2024-02-26T11:41:47;94816.72;;;16.61;nan
34328;BME280;20588;48.840;10.064;2024-02-26T11:44:13;94822.56;;;16.53;nan
34328;BME280;20588;48.840;10.064;2024-02-26T11:46:42;94819.09;;;16.44;nan
34328;BME280;20588;48.840;10.064;2024-02-26T11:51:54;94821.13;;;16.47;nan
34328;BME280;20588;48.840;10.064;2024-02-26T12:00:14;94829.50;;;16.11;nan
34328;BME280;20588;48.840;10.064;2024-02-26T12:02:52;94821.81;;;16.06;nan
34328;BME280;20588;48.840;10.064;2024-02-26T12:05:24;94824.72;;;16.05;nan
34328;BME280;20588;48.840;10.064;2024-02-26T12:07:59;94827.03;;;16.06;nan
34328;BME280;20588;48.840;10.064;2024-02-26T12:10:31;94821.81;;;16.06;nan
34328;BME280;20588;48.840;10.064;2024-02-26T12:15:37;94825.28;;;16.02;nan
34328;BME280;20588;48.840;10.064;2024-02-26T12:18:05;94823.94;;;16.04;nan
34328;BME280;20588;48.840;10.064;2024-02-26T12:20:32;94828.72;;;15.97;nan
34328;BME280;20588;48.840;10.064;2024-02-26T12:22:59;94832.28;;;16.01;nan
34328;BME280;20588;48.840;10.064;2024-02-26T12:25:26;94831.28;;;15.84;nan
34328;BME280;20588;48.840;10.064;2024-02-26T12:27:54;94839.22;;;15.74;nan
34328;BME280;20588;48.840;10.064;2024-02-26T12:30:20;94834.88;;;15.69;nan
34328;BME280;20588;48.840;10.064;2024-02-26T12:32:48;94834.13;;;15.69;nan
34328;BME280;20588;48.840;10.064;2024-02-26T12:35:14;94839.94;;;15.61;nan
34328;BME280;20588;48.840;10.064;2024-02-26T12:37:41;94843.94;;;15.53;nan
34328;BME280;20588;48.840;10.064;2024-02-26T12:40:09;94842.81;;;15.41;nan
34328;BME280;20588;48.840;10.064;2024-02-26T12:42:36;94844.19;;;15.33;nan
34328;BME280;20588;48.840;10.064;2024-02-26T12:45:07;94847.91;;;15.27;nan
34328;BME280;20588;48.840;10.064;2024-02-26T12:47:38;94852.88;;;15.24;nan
34328;BME280;20588;48.840;10.064;2024-02-26T12:50:05;94853.50;;;15.16;nan
34328;BME280;20588;48.840;10.064;2024-02-26T12:52:33;94858.25;;;15.09;nan
34328;BME280;20588;48.840;10.064;2024-02-26T12:55:00;94863.16;;;14.92;nan
34328;BME280;20588;48.840;10.064;2024-02-26T12:57:27;94863.75;;;14.84;nan
34328;BME280;20588;48.840;10.064;2024-02-26T12:59:55;94863.78;;;14.79;nan
34328;BME280;20588;48.840;10.064;2024-02-26T13:02:21;94861.00;;;14.75;nan
34328;BME280;20588;48.840;10.064;2024-02-26T13:04:47;94861.56;;;14.72;nan
34328;BME280;20588;48.840;10.064;2024-02-26T13:07:13;94867.81;;;14.66;nan
34328;BME280;20588;48.840;10.064;2024-02-26T13:09:40;94865.03;;;14.63;nan
34328;BME280;20588;48.840;10.064;2024-02-26T13:12:06;94868.16;;;14.60;nan
34328;BME280;20588;48.840;10.064;2024-02-26T13:14:33;94874.66;;;14.57;nan